Time;durP1;ratioP1;P1;durP2;ratioP2;P2;SDS_P1;SDS_P2;PMS_P1;PMS_P2;Temp;Humidity;BMP_temperature;BMP_pressure;BME280_temperature;BME280_humidity;BME280_pressure;Samples;Min_cycle;Max_cycle;Signal;HPM_P1;HPM_P2
2021/04/12 00:01:50;;;;;;;2.73;1.87;;;7.10;78.90;;;;;;5082874;28;20016;-78
2021/04/12 00:04:23;;;;;;;2.67;2.10;;;7.00;78.80;;;;;;5079758;28;20036;-78
2021/04/12 00:07:12;;;;;;;3.57;2.40;;;7.00;78.90;;;;;;5087951;28;20461;-78
2021/04/12 00:09:46;;;;;;;3.07;2.10;;;7.00;78.80;;;;;;5077453;28;20028;-79
2021/04/12 00:12:38;;;;;;;2.20;1.83;;;7.00;78.40;;;;;;5080740;28;20036;-78
2021/04/12 00:15:15;;;;;;;2.80;1.90;;;6.90;78.30;;;;;;5072287;28;20028;-78
2021/04/12 00:17:45;;;;;;;3.50;2.23;;;6.90;78.30;;;;;;5087126;28;20081;-78
2021/04/12 00:20:22;;;;;;;3.27;2.07;;;7.00;78.20;;;;;;5081200;28;20122;-78
2021/04/12 00:22:53;;;;;;;3.00;2.20;;;7.00;77.60;;;;;;5091893;28;20032;-79
2021/04/12 00:25:22;;;;;;;3.00;1.67;;;6.90;77.80;;;;;;5074361;28;20078;-78
2021/04/12 00:28:11;;;;;;;2.70;1.70;;;6.90;78.10;;;;;;5084667;28;20051;-78
2021/04/12 00:30:43;;;;;;;3.07;1.87;;;6.90;77.80;;;;;;5086829;28;20024;-78
2021/04/12 00:33:12;;;;;;;;;;;6.90;77.80;;;;;;5089651;28;20024;-78
2021/04/12 00:35:45;;;;;;;3.07;2.03;;;6.90;78.00;;;;;;5077499;28;20399;-78
2021/04/12 00:38:22;;;;;;;2.90;1.93;;;6.90;77.80;;;;;;5082002;28;20032;-79
2021/04/12 00:41:21;;;;;;;3.27;1.83;;;6.90;77.50;;;;;;5087448;28;20052;-80
2021/04/12 00:44:06;;;;;;;2.23;1.67;;;7.00;77.10;;;;;;5086486;28;20201;-79
2021/04/12 00:47:07;;;;;;;2.83;1.80;;;6.90;77.40;;;;;;5071722;28;20025;-78
2021/04/12 00:50:06;;;;;;;2.53;1.80;;;6.90;77.50;;;;;;5072873;28;20068;-78
2021/04/12 00:52:41;;;;;;;3.03;2.00;;;6.90;77.00;;;;;;5084925;28;20103;-78
2021/04/12 00:55:18;;;;;;;2.27;1.80;;;6.90;76.90;;;;;;5074608;28;20557;-78
2021/04/12 00:58:09;;;;;;;3.10;1.73;;;7.00;77.30;;;;;;5085472;28;20021;-78
2021/04/12 01:00:38;;;;;;;2.97;1.70;;;6.90;76.70;;;;;;5089010;28;20023;-78
2021/04/12 01:03:15;;;;;;;2.70;1.80;;;6.90;77.00;;;;;;5094099;28;20024;-78
2021/04/12 01:05:47;;;;;;;1.83;1.43;;;6.90;77.10;;;;;;5081452;28;20024;-79
2021/04/12 01:08:31;;;;;;;3.45;1.88;;;6.80;77.00;;;;;;5085446;28;20021;-78
2021/04/12 01:11:15;;;;;;;5.07;1.80;;;6.80;76.60;;;;;;5091381;28;20086;-77
2021/04/12 01:13:46;;;;;;;2.70;1.60;;;6.80;77.10;;;;;;5082117;28;20457;-78
2021/04/12 01:16:31;;;;;;;4.82;1.92;;;6.80;77.00;;;;;;5085165;28;20086;-78
2021/04/12 01:19:35;;;;;;;3.67;1.60;;;6.80;77.00;;;;;;5093110;28;20473;-79
2021/04/12 01:22:19;;;;;;;3.93;1.67;;;6.80;76.50;;;;;;4986626;28;20554;-78
2021/04/12 01:25:00;;;;;;;3.23;1.53;;;6.70;77.80;;;;;;5075834;28;20098;-79
2021/04/12 01:27:57;;;;;;;1.90;1.53;;;6.70;76.80;;;;;;5080880;28;20020;-79
2021/04/12 01:30:36;;;;;;;1.93;1.23;;;6.80;76.40;;;;;;5084436;28;20098;-78
2021/04/12 01:33:41;;;;;;;2.77;1.57;;;6.80;77.30;;;;;;5093417;28;20024;-78
2021/04/12 01:36:10;;;;;;;1.97;1.50;;;6.80;77.00;;;;;;5083834;28;20036;-78
2021/04/12 01:38:35;;;;;;;3.57;1.90;;;6.80;76.00;;;;;;5080591;28;20449;-79
2021/04/12 01:41:20;;;;;;;2.03;1.37;;;6.80;75.60;;;;;;5084203;28;20031;-78
2021/04/12 01:44:09;;;;;;;3.27;1.70;;;6.80;75.70;;;;;;5095534;28;20031;-79
2021/04/12 01:46:50;;;;;;;3.50;1.77;;;6.70;76.30;;;;;;5082115;28;20020;-79
2021/04/12 01:49:23;;;;;;;3.33;1.70;;;6.70;76.00;;;;;;5090242;28;20036;-79
2021/04/12 01:52:13;;;;;;;2.77;1.70;;;6.70;76.80;;;;;;5082364;28;20473;-79
2021/04/12 01:54:59;;;;;;;3.90;1.77;;;6.70;76.20;;;;;;5080231;28;20029;-79
2021/04/12 01:57:50;;;;;;;4.47;1.87;;;6.70;76.60;;;;;;5079389;28;20027;-79
2021/04/12 02:00:38;;;;;;;4.37;2.37;;;6.70;76.90;;;;;;5084045;28;20037;-79
2021/04/12 02:03:26;;;;;;;4.10;2.20;;;6.60;76.90;;;;;;5093600;28;20024;-79
2021/04/12 02:06:01;;;;;;;6.17;2.70;;;6.70;77.30;;;;;;5081934;28;20020;-79
2021/04/12 02:08:53;;;;;;;6.00;2.20;;;6.60;77.00;;;;;;5095107;28;20107;-78
2021/04/12 02:11:34;;;;;;;3.60;2.40;;;6.60;77.10;;;;;;5090341;28;20226;-78
2021/04/12 02:14:21;;;;;;;4.10;2.50;;;6.60;76.90;;;;;;5082176;28;20085;-77
2021/04/12 02:17:10;;;;;;;3.50;2.60;;;6.60;76.20;;;;;;5093704;28;20054;-77
2021/04/12 02:19:46;;;;;;;4.63;2.60;;;6.50;77.60;;;;;;5078919;28;20035;-78
2021/04/12 02:22:30;;;;;;;5.53;2.57;;;6.50;78.00;;;;;;5083267;28;20025;-77
2021/04/12 02:25:00;;;;;;;4.20;2.50;;;6.50;78.20;;;;;;5089944;28;20028;-77
2021/04/12 02:27:52;;;;;;;3.43;2.43;;;6.60;78.40;;;;;;5078238;28;20074;-77
2021/04/12 02:30:39;;;;;;;4.47;2.80;;;6.50;78.20;;;;;;5077257;28;20056;-77
2021/04/12 02:33:29;;;;;;;4.40;2.70;;;6.50;78.40;;;;;;5091538;28;20058;-77
2021/04/12 02:36:00;;;;;;;4.97;2.80;;;6.50;78.70;;;;;;5082245;28;20024;-77
2021/04/12 02:38:42;;;;;;;5.95;2.70;;;6.50;78.70;;;;;;5092805;28;20028;-77
2021/04/12 02:41:54;;;;;;;4.00;2.58;;;6.40;78.60;;;;;;5077001;28;20032;-77
2021/04/12 02:44:54;;;;;;;2.90;2.03;;;6.30;77.90;;;;;;5081966;28;20024;-77
2021/04/12 02:47:48;;;;;;;4.03;1.83;;;6.10;78.50;;;;;;5080297;28;20048;-77
2021/04/12 02:50:52;;;;;;;3.10;1.83;;;6.10;78.60;;;;;;5074105;28;20108;-77
2021/04/12 02:53:39;;;;;;;4.10;2.00;;;6.10;78.50;;;;;;5073840;28;20028;-77
2021/04/12 02:56:14;;;;;;;4.00;2.10;;;6.20;79.30;;;;;;5085978;28;20021;-77
2021/04/12 02:59:20;;;;;;;3.37;1.60;;;6.10;78.30;;;;;;5090329;28;20454;-77
2021/04/12 03:01:52;;;;;;;2.83;1.97;;;6.00;78.60;;;;;;5107859;28;20024;-77
2021/04/12 03:04:47;;;;;;;2.63;1.67;;;6.00;78.90;;;;;;5102079;28;20024;-77
2021/04/12 03:07:38;;;;;;;3.43;1.70;;;6.00;79.00;;;;;;5003378;28;20038;-78
2021/04/12 03:10:33;;;;;;;3.47;2.10;;;6.00;78.30;;;;;;5084527;28;20428;-77
2021/04/12 03:13:14;;;;;;;3.27;1.70;;;6.00;78.70;;;;;;5097447;28;20095;-77
2021/04/12 03:16:11;;;;;;;2.27;1.30;;;6.00;78.10;;;;;;5089770;28;20021;-77
2021/04/12 03:19:06;;;;;;;2.33;1.33;;;6.00;78.30;;;;;;5107785;28;20031;-77
2021/04/12 03:21:56;;;;;;;4.70;1.70;;;6.00;78.90;;;;;;5089212;28;20035;-77
2021/04/12 03:24:26;;;;;;;4.93;2.10;;;5.90;79.10;;;;;;5100865;28;20020;-77
2021/04/12 03:27:03;;;;;;;4.20;2.17;;;5.90;78.90;;;;;;5109553;28;20027;-77
2021/04/12 03:29:41;;;;;;;3.53;2.50;;;5.90;78.70;;;;;;5079814;28;20076;-77
2021/04/12 03:32:41;;;;;;;4.70;2.10;;;5.80;79.10;;;;;;5087962;28;20023;-77
2021/04/12 03:35:21;;;;;;;2.63;1.80;;;5.90;79.40;;;;;;5096163;28;20152;-77
2021/04/12 03:38:23;;;;;;;3.83;2.00;;;5.90;79.70;;;;;;5088557;28;20161;-77
2021/04/12 03:41:05;;;;;;;3.58;2.20;;;5.80;79.40;;;;;;5090738;28;20485;-77
2021/04/12 03:43:53;;;;;;;4.80;2.53;;;5.80;79.40;;;;;;5080054;28;20051;-77
2021/04/12 03:46:33;;;;;;;5.53;2.67;;;5.70;79.80;;;;;;5082809;28;20028;-77
2021/04/12 03:49:17;;;;;;;4.90;2.60;;;5.70;80.20;;;;;;5109221;28;20056;-76
2021/04/12 03:51:56;;;;;;;4.73;2.33;;;5.60;79.50;;;;;;5081262;28;20481;-76
2021/04/12 03:54:36;;;;;;;3.97;2.33;;;5.70;79.70;;;;;;5094273;28;20031;-77
2021/04/12 03:57:20;;;;;;;4.57;2.60;;;5.70;79.80;;;;;;5096155;28;20031;-76
2021/04/12 04:00:08;;;;;;;3.40;2.20;;;5.80;80.20;;;;;;5088200;28;20077;-77
2021/04/12 04:03:04;;;;;;;3.43;2.40;;;5.80;79.70;;;;;;5105907;28;20124;-77
2021/04/12 04:05:36;;;;;;;3.97;2.10;;;5.70;79.50;;;;;;5078722;28;20028;-76
2021/04/12 04:08:17;;;;;;;3.10;2.15;;;5.80;79.00;;;;;;5085663;28;20028;-77
2021/04/12 04:11:20;;;;;;;4.63;2.40;;;5.70;79.60;;;;;;5089742;28;20057;-78
2021/04/12 04:14:01;;;;;;;3.50;2.50;;;5.80;79.50;;;;;;5081780;28;20023;-78
2021/04/12 04:16:48;;;;;;;6.67;2.40;;;5.80;79.70;;;;;;5081793;28;20036;-78
2021/04/12 04:19:22;;;;;;;6.00;2.80;;;5.80;80.80;;;;;;5109126;28;20119;-78
2021/04/12 04:22:10;;;;;;;5.57;2.50;;;5.80;81.00;;;;;;5082260;28;20122;-79
2021/04/12 04:25:08;;;;;;;4.00;2.27;;;5.80;80.10;;;;;;5081499;28;20028;-78
2021/04/12 04:28:22;;;;;;;4.30;2.30;;;5.60;80.30;;;;;;5024264;28;20043;-78
2021/04/12 04:31:12;;;;;;;5.13;2.53;;;5.50;81.00;;;;;;5090599;28;20035;-78
2021/04/12 04:33:47;;;;;;;6.83;2.90;;;5.60;81.00;;;;;;5036069;28;20406;-78
2021/04/12 04:36:27;;;;;;;4.27;2.70;;;5.60;80.90;;;;;;5107098;28;20024;-77
2021/04/12 04:39:30;;;;;;;5.03;2.70;;;5.60;80.30;;;;;;5100981;28;20024;-78
2021/04/12 04:42:43;;;;;;;7.30;2.83;;;5.70;79.60;;;;;;5105341;28;20020;-79
2021/04/12 04:45:35;;;;;;;3.27;2.20;;;5.50;79.60;;;;;;5035941;28;20055;-77
2021/04/12 04:48:19;;;;;;;5.32;2.78;;;5.60;80.40;;;;;;5086193;28;20052;-78
2021/04/12 04:51:09;;;;;;;5.53;2.90;;;5.60;81.00;;;;;;5090551;28;20032;-78
2021/04/12 04:53:44;;;;;;;5.47;2.73;;;5.60;82.10;;;;;;5080625;28;20028;-77
2021/04/12 04:56:31;;;;;;;7.30;3.00;;;5.60;81.40;;;;;;5085133;28;20103;-77
2021/04/12 04:58:59;;;;;;;5.73;3.00;;;5.60;80.70;;;;;;5076067;28;20096;-78
2021/04/12 05:01:53;;;;;;;9.67;3.50;;;5.60;79.90;;;;;;5094320;28;20020;-77
2021/04/12 05:04:57;;;;;;;5.00;2.93;;;5.70;80.50;;;;;;5084061;28;20043;-77
2021/04/12 05:07:29;;;;;;;4.63;2.73;;;5.70;80.70;;;;;;5073324;28;20057;-77
2021/04/12 05:10:47;;;;;;;6.60;3.25;;;5.70;81.10;;;;;;5086789;28;20039;-78
2021/04/12 05:13:50;;;;;;;4.53;3.00;;;5.70;81.10;;;;;;5018329;28;20033;-77
2021/04/12 05:16:45;;;;;;;6.27;3.70;;;5.80;80.80;;;;;;5082852;28;20437;-77
2021/04/12 05:19:42;;;;;;;6.67;3.87;;;5.80;80.20;;;;;;5091802;28;20063;-78
2021/04/12 05:22:26;;;;;;;8.07;3.60;;;5.90;80.30;;;;;;5083680;28;20032;-76
2021/04/12 05:24:55;;;;;;;8.73;4.00;;;5.90;80.50;;;;;;5078475;28;20031;-77
2021/04/12 05:27:46;;;;;;;7.60;3.50;;;5.80;81.00;;;;;;5090535;28;20059;-78
2021/04/12 05:30:30;;;;;;;7.30;4.07;;;5.80;80.90;;;;;;5084264;28;20032;-78
2021/04/12 05:33:32;;;;;;;8.17;3.83;;;5.80;81.00;;;;;;5095948;28;20534;-78
2021/04/12 05:36:16;;;;;;;;;;;5.80;80.80;;;;;;5084320;28;20062;-77
2021/04/12 05:38:54;;;;;;;6.80;3.60;;;5.80;80.70;;;;;;5080602;28;19904;-78
2021/04/12 05:41:57;;;;;;;10.13;3.87;;;5.90;80.40;;;;;;5089899;28;20074;-78
2021/04/12 05:44:33;;;;;;;6.40;4.03;;;5.90;80.80;;;;;;5085335;28;20488;-78
2021/04/12 05:47:15;;;;;;;8.03;4.40;;;5.90;81.50;;;;;;5095735;28;20119;-78
2021/04/12 05:50:11;;;;;;;8.63;3.75;;;5.90;81.70;;;;;;5083606;28;20555;-77
2021/04/12 05:53:01;;;;;;;10.77;4.23;;;6.00;81.60;;;;;;5083693;28;20040;-78
2021/04/12 05:55:58;;;;;;;6.57;3.83;;;6.00;81.10;;;;;;5080752;28;21041;-77
2021/04/12 05:58:50;;;;;;;9.67;3.60;;;6.00;81.00;;;;;;5095224;28;20027;-76
2021/04/12 06:01:27;;;;;;;6.77;3.80;;;5.90;81.40;;;;;;5086738;28;20053;-76
2021/04/12 06:04:25;;;;;;;8.60;4.67;;;5.90;81.30;;;;;;5092646;28;20027;-75
2021/04/12 06:07:13;;;;;;;8.33;3.90;;;5.70;81.80;;;;;;5097106;28;20027;-76
2021/04/12 06:10:25;;;;;;;8.00;3.67;;;5.90;81.30;;;;;;5098530;28;20031;-75
2021/04/12 06:13:15;;;;;;;7.90;3.70;;;6.00;80.40;;;;;;5080633;28;20232;-79
2021/04/12 06:15:55;;;;;;;7.20;3.77;;;6.20;79.50;;;;;;5083381;28;20024;-80
2021/04/12 06:18:51;;;;;;;7.27;3.70;;;6.20;79.40;;;;;;5089481;28;20063;-80
2021/04/12 06:21:38;;;;;;;8.67;4.03;;;6.10;80.00;;;;;;5093484;28;20032;-79
2021/04/12 06:24:51;;;;;;;8.37;4.00;;;6.20;79.50;;;;;;5104249;28;20465;-81
2021/04/12 06:27:51;;;;;;;7.63;3.40;;;6.20;80.10;;;;;;5075517;28;20535;-76
2021/04/12 06:30:54;;;;;;;6.30;3.57;;;6.20;81.40;;;;;;5104105;28;20484;-78
2021/04/12 06:33:38;;;;;;;;;;;6.20;79.50;;;;;;5093067;28;20024;-75
2021/04/12 06:36:12;;;;;;;7.83;3.83;;;6.20;80.30;;;;;;5103067;28;19991;-74
2021/04/12 06:38:44;;;;;;;7.67;3.73;;;6.20;80.40;;;;;;5101581;28;20028;-75
2021/04/12 06:41:34;;;;;;;6.82;3.53;;;6.30;80.50;;;;;;5109410;28;20030;-77
2021/04/12 06:44:38;;;;;;;5.43;3.43;;;6.30;79.80;;;;;;5105664;28;20059;-77
2021/04/12 06:47:51;;;;;;;7.23;4.10;;;6.40;79.50;;;;;;5057670;28;20287;-78
2021/04/12 06:50:53;;;;;;;7.80;4.20;;;6.30;80.40;;;;;;5012917;28;20140;-77
2021/04/12 06:53:53;;;;;;;6.73;3.80;;;6.30;80.90;;;;;;5109949;28;20368;-83
2021/04/12 06:56:20;;;;;;;8.33;4.07;;;6.40;80.00;;;;;;5103451;28;20464;-74
2021/04/12 06:58:55;;;;;;;7.60;4.10;;;6.40;79.00;;;;;;5079807;28;20086;-74
2021/04/12 07:01:51;;;;;;;8.13;4.50;;;6.40;79.20;;;;;;5094542;28;20020;-73
2021/04/12 07:04:53;;;;;;;8.00;4.27;;;6.30;79.40;;;;;;5085156;28;20057;-73
2021/04/12 07:07:40;;;;;;;6.57;3.70;;;6.40;79.70;;;;;;5111729;28;20020;-73
2021/04/12 07:10:36;;;;;;;9.93;4.40;;;6.40;79.60;;;;;;5089733;28;20066;-73
2021/04/12 07:13:13;;;;;;;7.30;4.23;;;6.50;79.50;;;;;;5093834;28;20040;-73
2021/04/12 07:16:16;;;;;;;6.63;4.30;;;6.60;78.50;;;;;;5085111;28;20020;-76
2021/04/12 07:19:19;;;;;;;9.13;4.30;;;6.70;77.60;;;;;;5107245;28;20058;-77
2021/04/12 07:22:13;;;;;;;8.83;4.63;;;6.70;76.80;;;;;;5081140;28;20012;-76
2021/04/12 07:24:53;;;;;;;8.73;4.30;;;6.70;77.10;;;;;;5098262;28;20465;-76
2021/04/12 07:27:56;;;;;;;8.57;4.13;;;6.70;77.80;;;;;;5080947;28;20027;-76
2021/04/12 07:30:31;;;;;;;7.40;4.53;;;6.70;76.00;;;;;;5092300;28;20046;-76
2021/04/12 07:33:28;;;;;;;9.13;4.60;;;6.80;75.90;;;;;;5112549;28;20419;-77
2021/04/12 07:35:59;;;;;;;6.67;3.53;;;6.90;76.80;;;;;;5077424;28;20029;-77
2021/04/12 07:38:43;;;;;;;8.85;3.80;;;6.80;72.60;;;;;;5104109;28;20381;-76
2021/04/12 07:41:28;;;;;;;6.47;3.60;;;6.80;72.30;;;;;;5110625;28;20030;-78
2021/04/12 07:44:31;;;;;;;7.23;3.53;;;6.90;74.30;;;;;;5100173;28;20027;-76
2021/04/12 07:47:30;;;;;;;5.97;3.50;;;6.80;71.30;;;;;;5083127;28;20027;-76
2021/04/12 07:50:33;;;;;;;6.67;3.17;;;6.80;69.90;;;;;;5098755;28;20038;-77
2021/04/12 07:53:17;;;;;;;6.43;3.20;;;6.90;68.60;;;;;;5091954;28;20023;-76
2021/04/12 07:56:13;;;;;;;7.20;3.73;;;7.00;69.20;;;;;;5112301;28;20058;-77
2021/04/12 07:59:14;;;;;;;6.50;3.20;;;7.00;69.20;;;;;;5080345;28;20089;-77
2021/04/12 08:01:46;;;;;;;5.47;3.13;;;7.00;67.70;;;;;;5073151;28;20038;-78
2021/04/12 08:04:26;;;;;;;5.38;3.20;;;6.90;66.10;;;;;;5083448;28;20024;-76
2021/04/12 08:07:22;;;;;;;6.40;3.27;;;7.00;67.70;;;;;;5090052;28;20061;-76
2021/04/12 08:10:34;;;;;;;5.77;2.77;;;7.10;66.40;;;;;;5099165;28;20038;-76
2021/04/12 08:13:37;;;;;;;6.47;2.80;;;7.20;66.50;;;;;;5108838;28;20027;-77
2021/04/12 08:16:36;;;;;;;5.20;2.30;;;7.30;64.70;;;;;;5110223;28;20024;-75
2021/04/12 08:19:20;;;;;;;3.50;2.00;;;7.40;61.40;;;;;;5109040;28;20050;-75
2021/04/12 08:21:57;;;;;;;7.07;2.17;;;7.20;62.00;;;;;;5105249;28;20019;-75
2021/04/12 08:25:00;;;;;;;6.50;2.50;;;7.30;62.80;;;;;;5103618;28;20027;-74
2021/04/12 08:27:54;;;;;;;4.87;2.23;;;7.40;62.20;;;;;;5096764;28;20046;-76
2021/04/12 08:31:24;;;;;;;5.53;2.23;;;7.50;61.40;;;;;;5106465;28;20055;-76
2021/04/12 08:34:20;;;;;;;3.40;1.63;;;7.50;61.30;;;;;;5038017;28;20154;-75
2021/04/12 08:37:07;;;;;;;4.77;2.07;;;7.60;61.00;;;;;;5050505;28;20044;-76
2021/04/12 08:39:42;;;;;;;3.57;1.90;;;7.60;61.40;;;;;;5046237;28;20119;-76
2021/04/12 08:42:55;;;;;;;2.53;1.50;;;7.70;61.40;;;;;;5039128;28;20067;-76
2021/04/12 08:45:26;;;;;;;4.03;1.80;;;7.80;60.20;;;;;;5035345;28;20028;-76
2021/04/12 08:48:22;;;;;;;4.57;1.70;;;7.80;59.50;;;;;;5044051;28;20068;-76
2021/04/12 08:51:01;;;;;;;3.67;1.83;;;7.90;58.50;;;;;;5044524;28;20631;-76
2021/04/12 08:53:38;;;;;;;4.97;1.57;;;7.90;57.70;;;;;;5047465;28;20040;-77
2021/04/12 08:56:21;;;;;;;2.97;1.52;;;7.80;56.60;;;;;;5058318;28;20037;-74
2021/04/12 08:59:20;;;;;;;2.45;1.20;;;7.80;57.60;;;;;;5048944;28;20033;-73
2021/04/12 09:02:22;;;;;;;2.30;1.43;;;7.70;57.10;;;;;;5038918;28;20552;-75
2021/04/12 09:05:30;;;;;;;2.67;1.63;;;7.80;57.90;;;;;;5072026;28;20461;-76
2021/04/12 09:08:14;;;;;;;5.23;1.90;;;8.00;59.30;;;;;;5098811;28;20038;-75
2021/04/12 09:11:05;;;;;;;3.40;1.83;;;8.00;58.50;;;;;;5097418;28;20032;-75
2021/04/12 09:13:31;;;;;;;5.00;2.00;;;7.90;57.60;;;;;;5078178;28;20024;-75
2021/04/12 09:16:13;;;;;;;5.38;1.33;;;7.80;56.40;;;;;;5084695;28;20016;-76
2021/04/12 09:18:39;;;;;;;;;;;7.90;57.90;;;;;;5088213;28;20032;-75
2021/04/12 09:21:29;;;;;;;3.23;1.33;;;7.90;56.70;;;;;;5080955;28;19953;-75
2021/04/12 09:24:13;;;;;;;2.35;1.20;;;8.00;57.90;;;;;;5088809;28;20476;-75
2021/04/12 09:27:02;;;;;;;3.58;1.58;;;8.10;54.70;;;;;;5090800;28;20066;-75
2021/04/12 09:30:11;;;;;;;3.03;1.40;;;8.20;54.50;;;;;;5080730;28;20027;-75
2021/04/12 09:32:58;;;;;;;2.38;1.30;;;8.10;54.70;;;;;;5108846;28;20112;-74
2021/04/12 09:35:59;;;;;;;1.60;1.00;;;8.00;54.00;;;;;;5092478;28;20024;-77
2021/04/12 09:38:49;;;;;;;2.67;0.80;;;7.90;53.00;;;;;;5106421;28;20048;-78
2021/04/12 09:41:55;;;;;;;1.00;0.73;;;8.00;52.90;;;;;;5111968;28;20027;-76
2021/04/12 09:45:00;;;;;;;2.13;0.97;;;8.10;52.30;;;;;;5105778;28;20024;-76
2021/04/12 09:47:52;;;;;;;2.90;0.90;;;8.20;52.90;;;;;;5097790;28;20043;-76
2021/04/12 09:50:42;;;;;;;2.37;0.87;;;8.20;52.90;;;;;;5049509;28;20048;-76
2021/04/12 09:53:23;;;;;;;4.75;1.20;;;8.20;53.40;;;;;;5092651;28;20463;-76
2021/04/12 09:55:51;;;;;;;1.45;1.00;;;8.30;52.90;;;;;;5114222;28;20027;-75
2021/04/12 09:58:26;;;;;;;2.55;0.90;;;8.30;51.80;;;;;;5090711;28;20484;-74
2021/04/12 10:01:09;;;;;;;3.47;1.00;;;8.40;52.00;;;;;;5089510;28;20464;-76
2021/04/12 10:03:52;;;;;;;1.52;1.00;;;8.50;51.30;;;;;;5081914;28;20019;-74
2021/04/12 10:06:42;;;;;;;3.33;1.27;;;8.50;52.20;;;;;;5095990;28;20371;-74
2021/04/12 10:09:39;;;;;;;2.80;0.90;;;8.40;52.00;;;;;;5077812;28;20020;-74
2021/04/12 10:12:25;;;;;;;1.67;0.70;;;8.50;51.80;;;;;;5103944;28;20460;-75
2021/04/12 10:15:05;;;;;;;2.00;0.57;;;8.50;50.50;;;;;;5096580;28;20030;-74
2021/04/12 10:17:45;;;;;;;1.45;0.68;;;8.50;49.00;;;;;;5080379;28;20031;-77
2021/04/12 10:20:14;;;;;;;3.72;1.00;;;8.60;49.70;;;;;;5085638;28;20480;-78
2021/04/12 10:22:58;;;;;;;1.55;0.77;;;8.70;49.20;;;;;;5090872;28;20088;-77
2021/04/12 10:25:58;;;;;;;1.13;0.70;;;8.90;49.50;;;;;;5079212;28;20050;-74
2021/04/12 10:28:45;;;;;;;1.63;0.80;;;9.00;48.50;;;;;;5084613;28;20024;-74
2021/04/12 10:31:35;;;;;;;1.75;0.68;;;9.10;48.90;;;;;;5092707;28;20080;-75
2021/04/12 10:34:23;;;;;;;2.10;1.08;;;9.10;48.90;;;;;;5105112;28;20107;-74
2021/04/12 10:37:01;;;;;;;2.15;0.60;;;9.20;51.90;;;;;;5109140;28;20024;-73
2021/04/12 10:40:00;;;;;;;2.70;0.80;;;9.20;46.60;;;;;;5092013;28;20108;-75
2021/04/12 10:42:36;;;;;;;2.70;0.75;;;9.20;48.70;;;;;;5071493;28;20051;-73
2021/04/12 10:45:26;;;;;;;2.05;0.90;;;9.20;49.40;;;;;;5112908;28;20030;-72
2021/04/12 10:48:00;;;;;;;1.02;0.70;;;9.10;49.30;;;;;;5078534;28;20043;-75
2021/04/12 10:50:32;;;;;;;2.63;1.00;;;9.10;49.50;;;;;;5085766;28;20035;-75
2021/04/12 10:53:31;;;;;;;1.65;0.80;;;9.00;49.60;;;;;;5089167;28;20039;-75
2021/04/12 10:56:09;;;;;;;2.80;0.95;;;8.90;49.40;;;;;;5090527;28;20368;-76
2021/04/12 10:59:12;;;;;;;5.43;1.17;;;8.80;50.00;;;;;;5086337;28;20024;-74
2021/04/12 11:01:46;;;;;;;2.65;1.10;;;8.70;50.90;;;;;;5085935;28;20046;-74
2021/04/12 11:04:35;;;;;;;1.98;0.90;;;8.70;51.30;;;;;;5092031;28;20060;-75
2021/04/12 11:07:08;;;;;;;1.33;0.90;;;8.80;50.20;;;;;;5085403;28;20028;-75
2021/04/12 11:09:49;;;;;;;2.67;0.80;;;8.80;50.40;;;;;;5091556;28;20161;-74
2021/04/12 11:12:31;;;;;;;2.03;0.85;;;9.00;48.90;;;;;;5092665;28;20028;-74
2021/04/12 11:15:21;;;;;;;4.00;1.10;;;9.20;48.40;;;;;;5091247;28;20049;-75
2021/04/12 11:18:24;;;;;;;2.08;0.90;;;9.30;48.50;;;;;;5076138;28;20075;-72
2021/04/12 11:20:59;;;;;;;2.40;0.95;;;9.20;48.30;;;;;;5091177;28;20020;-73
2021/04/12 11:23:37;;;;;;;2.72;0.90;;;9.20;49.30;;;;;;5075523;28;20024;-73
2021/04/12 11:26:51;;;;;;;1.33;0.68;;;9.20;48.60;;;;;;5092890;28;20026;-73
2021/04/12 11:29:26;;;;;;;1.15;0.70;;;9.20;47.30;;;;;;5090643;28;20024;-74
2021/04/12 11:32:14;;;;;;;1.77;0.77;;;9.40;46.60;;;;;;5085555;28;20030;-74
2021/04/12 11:35:07;;;;;;;2.15;0.77;;;9.40;45.10;;;;;;5079039;28;20024;-74
2021/04/12 11:38:11;;;;;;;1.92;0.77;;;9.40;45.30;;;;;;5065637;28;20028;-74
2021/04/12 11:40:49;;;;;;;1.75;1.05;;;9.40;44.60;;;;;;5078607;28;20433;-75
2021/04/12 11:43:20;;;;;;;4.78;0.85;;;9.40;44.80;;;;;;5087756;28;20107;-75
2021/04/12 11:46:06;;;;;;;1.58;0.77;;;9.30;45.40;;;;;;5078226;28;20427;-75
2021/04/12 11:48:59;;;;;;;1.10;0.70;;;9.40;46.30;;;;;;5088066;28;20091;-75
2021/04/12 11:51:39;;;;;;;3.97;0.90;;;9.50;44.70;;;;;;5075426;28;20522;-75
2021/04/12 11:54:09;;;;;;;1.80;0.70;;;9.50;43.90;;;;;;5085047;28;20021;-73
2021/04/12 11:57:03;;;;;;;1.45;0.90;;;9.50;45.80;;;;;;5085640;28;20491;-74
2021/04/12 11:59:31;;;;;;;1.98;0.73;;;9.20;44.80;;;;;;5076143;28;20131;-77
2021/04/12 12:02:30;;;;;;;4.78;1.73;;;9.20;46.00;;;;;;5087791;28;20020;-75
2021/04/12 12:05:13;;;;;;;3.80;1.00;;;9.40;45.20;;;;;;5053432;28;20032;-75
2021/04/12 12:07:47;;;;;;;1.80;0.85;;;9.70;45.30;;;;;;5077044;28;20031;-76
2021/04/12 12:10:21;;;;;;;3.88;0.85;;;9.90;45.70;;;;;;5090331;28;20058;-76
2021/04/12 12:12:59;;;;;;;0.80;0.50;;;10.00;45.30;;;;;;5092681;28;20032;-77
2021/04/12 12:15:50;;;;;;;0.90;0.70;;;10.20;45.50;;;;;;5076124;28;20483;-75
2021/04/12 12:18:16;;;;;;;2.65;0.73;;;10.10;43.90;;;;;;5066780;28;20055;-76
2021/04/12 12:20:44;;;;;;;1.45;0.70;;;10.20;43.30;;;;;;5085127;28;20032;-76
2021/04/12 12:23:16;;;;;;;1.55;0.60;;;10.10;42.90;;;;;;5090508;28;20370;-77
2021/04/12 12:25:47;;;;;;;1.38;0.65;;;10.10;42.60;;;;;;5090969;28;20032;-76
2021/04/12 12:28:31;;;;;;;1.20;0.70;;;10.20;43.00;;;;;;5090343;28;20355;-75
2021/04/12 12:31:34;;;;;;;0.80;0.55;;;10.40;42.00;;;;;;5089900;28;20105;-74
2021/04/12 12:34:15;;;;;;;4.35;1.00;;;10.90;41.50;;;;;;5084298;28;20056;-76
2021/04/12 12:36:59;;;;;;;2.10;0.80;;;10.90;41.20;;;;;;5089521;28;20028;-74
2021/04/12 12:39:44;;;;;;;2.83;0.70;;;10.80;42.50;;;;;;5088698;28;20047;-74
2021/04/12 12:42:14;;;;;;;1.63;0.60;;;10.70;43.00;;;;;;5090017;28;20111;-78
2021/04/12 12:44:43;;;;;;;1.38;0.70;;;10.70;42.80;;;;;;5090477;28;20016;-76
2021/04/12 12:47:14;;;;;;;1.75;0.77;;;10.50;43.50;;;;;;5090799;28;20028;-76
2021/04/12 12:49:47;;;;;;;2.00;0.60;;;10.50;43.00;;;;;;5073528;28;20040;-77
2021/04/12 12:52:37;;;;;;;3.60;0.70;;;10.40;42.80;;;;;;5072988;28;20028;-75
2021/04/12 12:55:12;;;;;;;1.38;0.80;;;10.40;42.70;;;;;;5073954;28;20055;-76
2021/04/12 12:57:43;;;;;;;0.47;0.47;;;10.40;42.70;;;;;;5075155;28;20521;-75
2021/04/12 13:00:36;;;;;;;0.47;0.47;;;10.30;42.60;;;;;;5077024;28;20085;-73
2021/04/12 13:03:38;;;;;;;0.68;0.47;;;10.30;42.90;;;;;;5075555;28;20265;-74
2021/04/12 13:06:19;;;;;;;1.10;0.68;;;10.40;42.50;;;;;;5072776;28;20090;-74
2021/04/12 13:08:57;;;;;;;0.80;0.43;;;10.90;42.20;;;;;;5075722;28;20061;-73
2021/04/12 13:11:41;;;;;;;1.33;0.50;;;11.50;42.90;;;;;;5076110;28;20042;-73
2021/04/12 13:14:29;;;;;;;1.20;0.50;;;12.00;40.50;;;;;;5074884;28;20536;-74
2021/04/12 13:16:56;;;;;;;1.17;0.57;;;12.80;40.30;;;;;;5076356;28;20431;-72
2021/04/12 13:19:23;;;;;;;1.92;0.43;;;13.40;39.20;;;;;;5070657;28;20032;-73
2021/04/12 13:21:57;;;;;;;1.55;0.50;;;13.30;39.00;;;;;;5077267;28;20470;-76
2021/04/12 13:24:36;;;;;;;1.00;0.52;;;12.80;38.40;;;;;;5073557;28;20058;-77
2021/04/12 13:27:16;;;;;;;0.68;0.40;;;13.20;36.90;;;;;;5076946;28;20028;-76
2021/04/12 13:29:42;;;;;;;1.58;0.52;;;13.10;37.90;;;;;;5077355;28;20582;-77
2021/04/12 13:32:14;;;;;;;0.77;0.70;;;12.70;39.00;;;;;;5096302;28;20107;-76
2021/04/12 13:34:45;;;;;;;;;;;12.50;39.80;;;;;;5077096;28;20050;-77
2021/04/12 13:37:28;;;;;;;0.80;0.38;;;12.50;38.90;;;;;;5075991;28;19915;-79
2021/04/12 13:40:08;;;;;;;1.45;0.50;;;12.50;40.60;;;;;;5094468;28;20441;-76
2021/04/12 13:42:56;;;;;;;0.77;0.45;;;12.70;39.00;;;;;;5094197;28;20042;-77
2021/04/12 13:45:29;;;;;;;1.27;0.40;;;12.60;38.70;;;;;;5075899;28;20020;-77
2021/04/12 13:48:00;;;;;;;1.38;0.52;;;12.30;38.20;;;;;;5079450;28;20139;-77
2021/04/12 13:50:33;;;;;;;2.13;0.60;;;12.00;38.70;;;;;;5097406;28;20063;-76
2021/04/12 13:53:17;;;;;;;0.70;0.50;;;11.90;38.00;;;;;;5095171;28;20513;-76
2021/04/12 13:56:01;;;;;;;2.05;0.52;;;11.90;36.90;;;;;;5113249;28;20020;-76
2021/04/12 13:58:38;;;;;;;0.40;0.30;;;11.80;37.50;;;;;;5096877;28;20008;-77
2021/04/12 14:01:14;;;;;;;2.10;0.50;;;11.70;39.80;;;;;;5114686;28;20537;-77
2021/04/12 14:04:01;;;;;;;0.95;0.60;;;11.70;41.00;;;;;;5099233;28;20016;-76
2021/04/12 14:06:30;;;;;;;2.08;0.60;;;11.60;41.80;;;;;;5096795;28;20381;-77
2021/04/12 14:09:08;;;;;;;1.20;0.55;;;11.40;43.00;;;;;;5114505;28;20024;-74
2021/04/12 14:11:54;;;;;;;2.42;0.50;;;11.10;43.10;;;;;;5079090;28;20042;-76
2021/04/12 14:14:34;;;;;;;21.45;9.18;;;11.00;43.50;;;;;;5087444;28;20031;-75
2021/04/12 14:17:25;;;;;;;5.32;1.90;;;10.90;44.00;;;;;;5094021;28;20441;-76
2021/04/12 14:20:01;;;;;;;1.17;0.75;;;10.80;43.60;;;;;;5081040;28;20095;-75
2021/04/12 14:22:31;;;;;;;2.25;0.93;;;10.70;44.60;;;;;;5092395;28;20020;-75
2021/04/12 14:25:11;;;;;;;1.88;0.60;;;10.70;44.10;;;;;;5114863;28;20020;-75
2021/04/12 14:27:39;;;;;;;2.08;0.52;;;10.90;44.00;;;;;;5097323;28;20452;-76
2021/04/12 14:30:19;;;;;;;2.40;0.47;;;11.00;44.30;;;;;;5096041;28;20028;-75
2021/04/12 14:32:59;;;;;;;2.03;0.50;;;11.20;41.70;;;;;;5088299;28;20367;-74